Time;durP1;ratioP1;P1;durP2;ratioP2;P2;SDS_P1;SDS_P2;PMS_P1;PMS_P2;Temp;Humidity;BMP_temperature;BMP_pressure;BME280_temperature;BME280_humidity;BME280_pressure;Samples;Min_cycle;Max_cycle;Signal;HPM_P1;HPM_P2
2022/05/26 00:01:49;;;;;;;8.77;3.22;;;;;;;16.11;39.54;98860.53;4958565;28;20057;-76
2022/05/26 00:04:15;;;;;;;9.02;3.30;;;;;;;16.01;39.78;98852.94;4973206;28;20495;-76
2022/05/26 00:06:41;;;;;;;10.63;3.40;;;;;;;15.81;40.32;98854.00;4989053;28;20175;-76
2022/05/26 00:09:06;;;;;;;7.55;3.60;;;;;;;15.94;40.11;98854.81;4988833;28;20050;-74
2022/05/26 00:11:36;;;;;;;8.30;3.42;;;;;;;16.03;40.28;98853.56;4956250;28;20116;-75
2022/05/26 00:14:07;;;;;;;11.48;4.10;;;;;;;16.07;40.27;98854.75;4989257;28;20065;-75
2022/05/26 00:16:34;;;;;;;9.02;3.58;;;;;;;15.96;40.41;98846.59;4972484;28;20543;-75
2022/05/26 00:19:00;;;;;;;12.10;3.75;;;;;;;15.83;40.31;98841.25;4973209;28;20141;-76
2022/05/26 00:21:26;;;;;;;8.82;3.70;;;;;;;15.78;40.56;98843.72;4957593;28;20150;-75
2022/05/26 00:23:57;;;;;;;5.10;3.50;;;;;;;15.86;40.67;98836.31;4957282;28;20042;-75
2022/05/26 00:26:23;;;;;;;5.88;3.35;;;;;;;15.68;40.54;98820.09;4973266;28;20050;-75
2022/05/26 00:28:50;;;;;;;4.88;3.80;;;;;;;15.75;40.50;98847.66;4988690;28;20039;-75
2022/05/26 00:31:18;;;;;;;7.30;3.70;;;;;;;15.66;40.70;98840.06;4972100;28;20058;-75
2022/05/26 00:33:46;;;;;;;6.28;3.35;;;;;;;15.62;40.79;98828.94;4956154;28;20107;-75
2022/05/26 00:36:15;;;;;;;8.05;3.60;;;;;;;15.56;40.90;98815.59;4988980;28;20092;-75
2022/05/26 00:38:41;;;;;;;5.90;3.30;;;;;;;15.38;41.18;98824.25;4992107;28;20512;-75
2022/05/26 00:41:12;;;;;;;8.02;3.60;;;;;;;15.54;40.98;98836.38;4992297;28;20047;-75
2022/05/26 00:43:43;;;;;;;7.53;3.58;;;;;;;15.55;40.98;98833.50;4992125;28;20053;-75
2022/05/26 00:46:12;;;;;;;;;;;;;;;15.64;40.94;98826.06;4976103;28;20057;-75
2022/05/26 00:48:50;;;;;;;8.40;3.40;;;;;;;15.52;41.09;98820.53;4991890;28;19921;-77
2022/05/26 00:51:19;;;;;;;10.80;3.42;;;;;;;15.37;41.07;98833.28;4976534;28;20042;-76
2022/05/26 00:53:52;;;;;;;5.75;3.22;;;;;;;15.35;40.86;98797.88;4992187;28;20057;-77
2022/05/26 00:56:29;;;;;;;7.03;3.50;;;;;;;15.45;41.00;98811.72;4992134;28;20053;-75
2022/05/26 00:59:02;;;;;;;4.85;2.90;;;;;;;15.40;41.05;98822.22;4991454;28;20441;-75
2022/05/26 01:01:29;;;;;;;4.40;2.95;;;;;;;15.14;40.99;98801.59;5006617;28;20052;-75
2022/05/26 01:03:58;;;;;;;7.95;4.38;;;;;;;15.43;40.80;98816.44;4958676;28;20053;-73
2022/05/26 01:06:46;;;;;;;6.57;3.17;;;;;;;15.45;40.64;98792.97;4991407;28;20066;-73
2022/05/26 01:09:13;;;;;;;8.00;3.15;;;;;;;15.30;40.80;98803.03;4976482;28;20069;-76
2022/05/26 01:11:40;;;;;;;6.40;3.10;;;;;;;15.21;41.08;98793.59;4960259;28;20145;-76
2022/05/26 01:14:16;;;;;;;6.85;3.38;;;;;;;15.39;40.65;98792.97;4975653;28;20050;-75
2022/05/26 01:17:00;;;;;;;5.88;2.90;;;;;;;14.65;40.77;98721.03;4959559;28;20045;-74
2022/05/26 01:19:49;;;;;;;5.78;2.78;;;;;;;15.20;40.36;98799.97;4975569;28;20046;-75
2022/05/26 01:22:36;;;;;;;5.93;3.00;;;;;;;15.54;39.95;98788.22;4975449;28;20050;-74
2022/05/26 01:25:14;;;;;;;5.95;3.10;;;;;;;15.75;39.26;98793.28;4958990;28;20530;-74
2022/05/26 01:27:42;;;;;;;4.20;2.80;;;;;;;15.60;39.70;98792.72;4992891;28;20101;-75
2022/05/26 01:30:23;;;;;;;4.95;2.92;;;;;;;15.67;39.26;98783.63;4975596;28;20088;-75
2022/05/26 01:33:07;;;;;;;;;;;;;;;15.61;39.41;98780.97;4975427;28;20039;-73
2022/05/26 01:35:40;;;;;;;4.57;2.45;;;;;;;15.02;40.44;98773.84;4992393;28;20050;-77
2022/05/26 01:38:29;;;;;;;7.60;3.08;;;;;;;15.59;39.75;98772.34;4991944;28;20423;-77
2022/05/26 01:41:36;;;;;;;6.38;2.50;;;;;;;15.56;39.59;98762.88;4959178;28;20089;-74
2022/05/26 01:44:15;;;;;;;5.70;2.80;;;;;;;15.54;39.43;98770.31;4991456;28;20058;-76
2022/05/26 01:46:43;;;;;;;4.65;3.00;;;;;;;15.32;40.17;98770.72;4990656;28;20053;-75
2022/05/26 01:49:18;;;;;;;6.28;2.67;;;;;;;15.34;39.94;98782.88;4974713;28;20058;-75
2022/05/26 01:51:47;;;;;;;6.38;2.70;;;;;;;15.12;40.15;98776.94;4958611;28;20057;-75
2022/05/26 01:54:35;;;;;;;5.57;2.67;;;;;;;15.60;39.59;98776.66;4958578;28;20061;-75
2022/05/26 01:57:08;;;;;;;9.45;3.22;;;;;;;15.47;39.94;98777.50;4975474;28;20062;-75
2022/05/26 01:59:41;;;;;;;8.05;3.00;;;;;;;15.46;39.79;98775.88;4975589;28;20050;-75
2022/05/26 02:02:14;;;;;;;6.28;2.63;;;;;;;15.36;40.04;98775.44;4975431;28;20978;-75
2022/05/26 02:04:46;;;;;;;4.22;2.83;;;;;;;15.37;39.89;98773.59;4990913;28;20413;-75
2022/05/26 02:07:21;;;;;;;8.15;3.00;;;;;;;15.35;39.96;98765.78;4991190;28;20046;-75
2022/05/26 02:09:48;;;;;;;5.97;3.28;;;;;;;15.28;40.05;98770.34;4974500;28;20051;-75
2022/05/26 02:12:19;;;;;;;8.30;2.92;;;;;;;14.96;40.35;98766.66;4958407;28;20046;-76
2022/05/26 02:14:49;;;;;;;6.28;3.03;;;;;;;15.37;39.64;98770.94;4974581;28;20053;-75
2022/05/26 02:17:38;;;;;;;3.65;2.63;;;;;;;15.47;39.44;98758.78;5007036;28;20050;-75
2022/05/26 02:20:18;;;;;;;4.63;2.80;;;;;;;15.50;39.01;98761.03;4989832;28;20054;-74
2022/05/26 02:23:30;;;;;;;8.55;2.85;;;;;;;15.76;38.64;98768.97;4991216;28;20153;-74
2022/05/26 02:25:58;;;;;;;6.97;3.28;;;;;;;15.69;38.48;98752.13;4960439;28;20061;-74
2022/05/26 02:28:24;;;;;;;6.22;2.60;;;;;;;15.64;38.50;98753.78;4990033;28;20050;-74
2022/05/26 02:30:50;;;;;;;6.95;2.90;;;;;;;15.85;38.29;98750.84;4983734;28;20052;-76
2022/05/26 02:33:17;;;;;;;7.72;3.13;;;;;;;16.00;37.76;98749.53;4998207;28;20045;-77
2022/05/26 02:35:47;;;;;;;6.93;3.00;;;;;;;16.11;37.43;98751.53;4995091;28;20095;-77
2022/05/26 02:38:22;;;;;;;6.00;3.03;;;;;;;16.25;37.31;98742.34;4994334;28;20042;-78
2022/05/26 02:40:50;;;;;;;8.50;3.10;;;;;;;15.89;37.49;98701.16;5012662;28;20124;-75
2022/05/26 02:43:24;;;;;;;4.18;3.00;;;;;;;16.25;37.57;98761.09;5019635;28;20471;-74
2022/05/26 02:46:23;;;;;;;9.18;3.00;;;;;;;16.70;37.03;98756.50;5001180;28;20050;-74
2022/05/26 02:49:21;;;;;;;5.25;2.65;;;;;;;16.69;36.40;98758.38;4991087;28;20046;-74
2022/05/26 02:52:17;;;;;;;6.68;3.00;;;;;;;16.79;36.72;98763.22;5002149;28;20107;-74
2022/05/26 02:54:46;;;;;;;5.13;2.67;;;;;;;16.78;36.21;98757.06;5013699;28;20048;-73
2022/05/26 02:57:17;;;;;;;8.23;3.38;;;;;;;16.88;36.08;98754.69;5013354;28;20055;-73
2022/05/26 02:59:55;;;;;;;5.60;3.45;;;;;;;16.93;35.78;98753.25;5030349;28;20053;-74
2022/05/26 03:02:32;;;;;;;5.80;2.92;;;;;;;17.00;35.85;98745.94;5007282;28;20056;-75
2022/05/26 03:05:23;;;;;;;6.72;3.28;;;;;;;17.27;35.50;98755.38;4999226;28;20038;-74
2022/05/26 03:07:49;;;;;;;;;;;;;;;17.44;35.02;98749.25;4974721;28;20050;-73
2022/05/26 03:10:15;;;;;;;5.95;3.13;;;;;;;17.13;35.66;98735.09;4991708;28;19921;-75
2022/05/26 03:12:43;;;;;;;8.00;3.20;;;;;;;17.10;35.77;98739.03;5013654;28;20454;-74
2022/05/26 03:15:09;;;;;;;8.25;3.47;;;;;;;17.22;35.71;98734.56;5013393;28;20076;-74
2022/05/26 03:17:35;;;;;;;8.90;3.28;;;;;;;17.33;35.50;98735.72;4997091;28;20037;-76
2022/05/26 03:20:02;;;;;;;6.93;3.30;;;;;;;17.54;35.05;98732.63;4997708;28;20048;-77
2022/05/26 03:22:29;;;;;;;7.53;3.60;;;;;;;17.60;34.66;98721.81;5030143;28;20053;-73
2022/05/26 03:24:54;;;;;;;9.75;3.42;;;;;;;17.82;34.24;98719.47;5012874;28;20053;-75
2022/05/26 03:27:21;;;;;;;8.32;3.28;;;;;;;17.99;34.00;98721.28;4981494;28;20052;-76
2022/05/26 03:29:46;;;;;;;8.80;3.38;;;;;;;18.05;33.57;98700.75;5015505;28;20049;-76
2022/05/26 03:32:12;;;;;;;6.63;3.58;;;;;;;18.07;33.37;98691.41;5030593;28;20053;-74
2022/05/26 03:42:52;;;;;;;8.63;3.70;;;;;;;18.68;33.04;98717.19;5029924;28;20046;-74
2022/05/26 03:45:19;;;;;;;8.52;3.60;;;;;;;18.83;33.14;98713.00;5013734;28;20041;-75
2022/05/26 03:47:45;;;;;;;8.05;4.05;;;;;;;18.68;32.82;98706.44;4996818;28;20047;-73
2022/05/26 03:50:11;;;;;;;9.18;3.53;;;;;;;18.84;32.57;98706.56;5030636;28;20124;-75
2022/05/26 03:52:37;;;;;;;7.72;3.65;;;;;;;18.84;32.45;98703.03;5012971;28;20131;-75
2022/05/26 03:55:04;;;;;;;8.35;3.30;;;;;;;19.00;32.11;98697.81;4996796;28;20524;-76
2022/05/26 03:57:31;;;;;;;8.90;3.70;;;;;;;18.99;32.03;98704.22;5029600;28;20057;-76
2022/05/26 03:59:58;;;;;;;7.57;3.55;;;;;;;19.12;32.12;98698.63;5028304;28;20153;-76
2022/05/26 04:02:25;;;;;;;8.63;3.58;;;;;;;19.06;32.12;98678.03;5012977;28;20041;-76
2022/05/26 04:04:51;;;;;;;10.65;3.72;;;;;;;19.22;32.04;98700.72;5013372;28;20053;-75
2022/05/26 04:07:17;;;;;;;8.50;3.88;;;;;;;19.28;31.93;98697.91;4991564;28;20048;-76
2022/05/26 04:09:42;;;;;;;5.82;3.40;;;;;;;19.39;31.48;98693.59;5003532;28;20042;-74
2022/05/26 04:12:10;;;;;;;8.57;3.75;;;;;;;19.49;31.22;98681.16;4987976;28;20492;-77
2022/05/26 04:14:36;;;;;;;6.32;3.80;;;;;;;19.20;31.77;98686.66;5020406;28;20042;-75
2022/05/26 04:17:02;;;;;;;7.65;3.70;;;;;;;19.05;31.76;98684.44;5005859;28;20121;-78
2022/05/26 04:19:29;;;;;;;8.25;3.35;;;;;;;19.19;31.83;98683.16;5009343;28;20049;-76
2022/05/26 04:24:40;;;;;;;6.72;3.38;;;;;;;18.81;32.29;98679.28;5016002;28;20582;-76
2022/05/26 04:27:06;;;;;;;8.38;3.70;;;;;;;18.76;32.67;98677.31;5022252;28;20065;-77
2022/05/26 04:29:32;;;;;;;5.82;3.65;;;;;;;18.92;32.36;98676.63;5000933;28;20400;-77
2022/05/26 04:31:59;;;;;;;10.13;3.47;;;;;;;18.89;32.12;98669.03;4997941;28;20048;-77
2022/05/26 04:34:25;;;;;;;8.80;4.35;;;;;;;18.73;32.21;98672.41;5034255;28;20053;-79
2022/05/26 04:36:51;;;;;;;5.03;3.63;;;;;;;18.97;31.91;98675.91;5017056;28;20066;-78
2022/05/26 04:39:19;;;;;;;8.52;3.58;;;;;;;18.86;32.13;98665.97;5017533;28;20140;-78
2022/05/26 04:41:46;;;;;;;9.23;3.90;;;;;;;18.80;31.99;98661.53;5016605;28;20128;-77
2022/05/26 04:44:18;;;;;;;8.40;3.60;;;;;;;18.84;32.01;98658.13;5032894;28;20049;-76
2022/05/26 04:46:44;;;;;;;9.77;3.90;;;;;;;18.65;32.27;98655.81;5016671;28;20080;-77
2022/05/26 04:49:10;;;;;;;10.23;4.10;;;;;;;18.67;32.48;98659.88;4999537;28;20048;-76
2022/05/26 04:51:39;;;;;;;9.45;4.10;;;;;;;18.61;32.59;98660.81;5017008;28;20562;-76
2022/05/26 04:54:07;;;;;;;14.05;4.10;;;;;;;18.61;32.86;98650.06;5000543;28;20057;-77
2022/05/26 04:56:34;;;;;;;6.88;3.60;;;;;;;18.38;33.04;98636.59;4984507;28;20385;-78
2022/05/26 04:58:59;;;;;;;9.68;4.05;;;;;;;18.29;33.16;98624.53;4972392;28;20447;-77
2022/05/26 05:01:25;;;;;;;8.55;3.55;;;;;;;18.39;33.24;98614.84;4992940;28;20057;-77
2022/05/26 05:03:54;;;;;;;11.57;3.92;;;;;;;18.73;33.08;98632.06;4978634;28;20100;-78
2022/05/26 05:06:22;;;;;;;13.35;4.45;;;;;;;18.92;32.98;98633.56;4977044;28;20131;-73
2022/05/26 05:08:48;;;;;;;7.22;3.85;;;;;;;18.74;33.21;98622.94;5011713;28;20068;-76
2022/05/26 05:11:14;;;;;;;12.20;4.85;;;;;;;18.65;33.07;98605.50;4977966;28;20531;-75
2022/05/26 05:13:41;;;;;;;11.35;3.72;;;;;;;19.01;32.83;98621.41;5041350;28;20042;-74
2022/05/26 05:16:29;;;;;;;6.95;4.30;;;;;;;19.44;32.60;98634.44;5028972;28;20152;-74
2022/05/26 05:18:56;;;;;;;18.30;4.47;;;;;;;19.39;32.54;98637.84;5012852;28;20136;-71
2022/05/26 05:21:49;;;;;;;9.80;3.90;;;;;;;19.42;31.49;98639.25;5029335;28;20064;-71
2022/05/26 05:24:17;;;;;;;8.85;3.53;;;;;;;19.37;31.44;98645.31;5023643;28;20052;-71
2022/05/26 05:26:45;;;;;;;8.98;3.50;;;;;;;19.45;31.51;98655.72;5031608;28;20107;-71
2022/05/26 05:29:14;;;;;;;17.48;4.13;;;;;;;19.46;31.44;98646.63;4997059;28;20478;-72
2022/05/26 05:31:44;;;;;;;7.10;3.80;;;;;;;19.60;31.33;98649.84;5030206;28;20494;-70
2022/05/26 05:34:14;;;;;;;15.27;4.25;;;;;;;19.55;31.40;98649.75;5031430;28;20503;-71
2022/05/26 05:36:40;;;;;;;9.80;4.17;;;;;;;19.48;31.46;98649.06;5030427;28;20042;-71
2022/05/26 05:39:07;;;;;;;9.88;3.70;;;;;;;19.59;31.08;98642.81;5013604;28;20051;-72
2022/05/26 05:41:33;;;;;;;7.80;3.78;;;;;;;19.86;30.90;98644.72;5029682;28;20179;-71
2022/05/26 05:44:00;;;;;;;11.07;3.67;;;;;;;19.82;31.27;98638.16;5029205;28;20037;-70
2022/05/26 05:46:33;;;;;;;8.23;3.28;;;;;;;19.88;30.86;98642.56;5012979;28;20045;-70
2022/05/26 05:49:01;;;;;;;6.85;3.13;;;;;;;19.92;30.77;98632.13;5029207;28;20049;-71
2022/05/26 05:51:27;;;;;;;8.75;4.03;;;;;;;19.85;31.14;98639.56;5013371;28;20041;-71
2022/05/26 05:53:52;;;;;;;9.80;3.20;;;;;;;19.77;31.13;98627.28;5029741;28;20049;-70
2022/05/26 05:56:18;;;;;;;10.82;3.88;;;;;;;19.84;30.64;98627.97;5029632;28;20128;-70
2022/05/26 05:58:44;;;;;;;7.88;3.20;;;;;;;19.93;30.22;98621.13;5013010;28;20827;-70
2022/05/26 06:01:09;;;;;;;9.52;3.80;;;;;;;20.09;29.92;98623.03;5012914;28;20128;-70
2022/05/26 06:03:36;;;;;;;15.57;4.15;;;;;;;20.42;29.74;98624.94;5013057;28;20554;-71
2022/05/26 06:06:03;;;;;;;8.20;3.58;;;;;;;20.56;30.29;98626.25;5029206;28;20120;-71
2022/05/26 06:08:29;;;;;;;15.98;3.92;;;;;;;20.61;29.78;98633.59;5012618;28;20075;-71
2022/05/26 06:10:55;;;;;;;7.25;3.17;;;;;;;20.65;29.40;98632.84;5030264;28;20510;-72
2022/05/26 06:13:21;;;;;;;17.33;4.00;;;;;;;20.67;29.42;98624.53;5012653;28;20140;-71
2022/05/26 06:15:46;;;;;;;12.95;3.90;;;;;;;20.61;29.73;98633.59;5029467;28;20069;-71
2022/05/26 06:18:13;;;;;;;8.25;3.70;;;;;;;20.82;29.64;98624.78;5013480;28;20049;-72
2022/05/26 06:20:40;;;;;;;13.10;3.85;;;;;;;21.10;28.96;98614.66;5028830;28;20037;-72
2022/05/26 06:23:06;;;;;;;14.48;3.90;;;;;;;21.36;28.72;98619.31;5012286;28;20049;-71
2022/05/26 06:25:32;;;;;;;8.02;3.70;;;;;;;21.46;28.87;98619.41;5009085;28;20115;-71
2022/05/26 06:30:42;;;;;;;15.20;3.83;;;;;;;21.24;28.56;98607.81;4989584;28;20141;-67
2022/05/26 06:38:41;;;;;;;7.45;3.50;;;;;;;21.73;28.19;98613.25;4973092;28;20089;-67
2022/05/26 06:43:54;;;;;;;10.55;3.40;;;;;;;22.10;27.27;98604.19;4973280;28;20068;-68
2022/05/26 06:46:19;;;;;;;9.02;3.47;;;;;;;22.15;27.27;98592.59;5002735;28;20843;-68
2022/05/26 06:48:46;;;;;;;9.55;3.20;;;;;;;22.43;27.39;98590.41;4986257;28;20084;-68
2022/05/26 06:51:11;;;;;;;7.93;3.58;;;;;;;22.78;26.76;98593.41;4984680;28;20049;-68
2022/05/26 06:53:38;;;;;;;10.35;3.10;;;;;;;22.63;26.48;98584.34;4970230;28;20151;-70
2022/05/26 06:56:05;;;;;;;8.80;3.10;;;;;;;23.22;25.66;98593.88;4987667;28;20046;-68
2022/05/26 06:58:33;;;;;;;11.98;3.05;;;;;;;23.05;25.49;98588.66;4986653;28;20089;-69
2022/05/26 07:01:02;;;;;;;4.05;2.47;;;;;;;23.29;25.75;98581.75;4985798;28;20061;-69
2022/05/26 07:03:30;;;;;;;9.82;3.20;;;;;;;23.20;25.36;98556.22;4969724;28;20653;-70
2022/05/26 07:05:55;;;;;;;9.50;2.90;;;;;;;23.58;25.25;98559.63;4969626;28;20072;-69
2022/05/26 07:08:21;;;;;;;9.20;3.20;;;;;;;24.14;24.92;98566.81;4986562;28;20073;-69
2022/05/26 07:10:50;;;;;;;8.45;2.95;;;;;;;24.54;24.74;98572.22;4970077;28;20042;-70
2022/05/26 07:13:15;;;;;;;8.32;2.85;;;;;;;24.65;23.26;98569.22;4985373;28;20495;-71
2022/05/26 07:15:41;;;;;;;7.88;2.83;;;;;;;25.41;22.55;98564.41;4986578;28;20105;-69
2022/05/26 07:18:08;;;;;;;8.20;2.95;;;;;;;25.88;22.01;98561.94;4986181;28;20137;-70
2022/05/26 07:20:39;;;;;;;14.10;2.90;;;;;;;26.67;20.79;98560.78;4986285;28;20054;-70
2022/05/26 07:23:08;;;;;;;10.32;3.40;;;;;;;26.36;20.72;98557.50;4985926;28;20052;-71
2022/05/26 07:25:34;;;;;;;7.70;3.10;;;;;;;27.53;19.68;98558.69;4969631;28;20050;-68
2022/05/26 07:28:00;;;;;;;15.77;3.70;;;;;;;28.67;18.58;98555.28;4986069;28;20105;-70
2022/05/26 07:30:26;;;;;;;6.43;3.08;;;;;;;30.67;17.10;98552.78;4986424;28;20050;-69
2022/05/26 07:32:51;;;;;;;11.18;2.70;;;;;;;32.59;14.72;98552.22;4969693;28;20045;-69
2022/05/26 07:35:17;;;;;;;6.00;2.35;;;;;;;34.01;11.93;98557.66;4970005;28;20053;-70
2022/05/26 07:43:13;;;;;;;8.82;2.53;;;;;;;41.07;8.08;98543.31;4986389;28;21509;-71
2022/05/26 07:45:39;;;;;;;11.70;6.78;;;;;;;42.29;6.25;98546.09;4992756;28;20133;-71
2022/05/26 07:48:05;;;;;;;6.18;1.90;;;;;;;43.07;5.95;98538.75;4990305;28;20053;-71
2022/05/26 07:50:31;;;;;;;3.47;1.90;;;;;;;44.45;4.86;98532.50;4975866;28;20052;-71
2022/05/26 07:52:57;;;;;;;9.32;1.90;;;;;;;45.95;4.39;98526.03;4958545;28;20497;-71
2022/05/26 07:55:22;;;;;;;10.55;2.10;;;;;;;46.60;3.93;98528.44;4992114;28;20042;-73
2022/05/26 07:57:49;;;;;;;9.57;2.35;;;;;;;46.37;3.89;98524.72;4973937;28;20045;-73
2022/05/26 08:00:16;;;;;;;5.43;2.00;;;;;;;46.02;3.64;98509.94;5007835;28;20045;-72
2022/05/26 08:02:42;;;;;;;8.85;2.67;;;;;;;46.13;4.16;98513.41;5007562;28;20069;-72
2022/05/26 08:05:12;;;;;;;12.43;2.92;;;;;;;47.02;3.50;98508.13;5007762;28;20452;-73
2022/05/26 08:07:38;;;;;;;8.48;2.20;;;;;;;47.23;3.31;98512.59;4975023;28;20050;-72
2022/05/26 08:10:05;;;;;;;8.32;2.30;;;;;;;45.90;3.81;98501.25;5007998;28;20112;-71
2022/05/26 08:12:30;;;;;;;10.13;2.00;;;;;;;42.56;5.36;98493.56;5007997;28;20132;-70
2022/05/26 08:14:56;;;;;;;5.72;2.00;;;;;;;41.55;5.84;98487.16;4991289;28;20571;-70
2022/05/26 08:17:23;;;;;;;4.65;1.90;;;;;;;40.95;6.44;98477.50;5007938;28;20042;-69
2022/05/26 08:19:50;;;;;;;5.20;1.73;;;;;;;39.65;6.77;98447.44;4975449;28;20050;-72
2022/05/26 08:22:17;;;;;;;8.00;2.00;;;;;;;40.03;6.80;98483.28;4974676;28;20455;-71
2022/05/26 08:24:51;;;;;;;7.40;2.13;;;;;;;42.01;5.82;98481.03;5006416;28;20136;-72
2022/05/26 08:27:17;;;;;;;9.43;2.10;;;;;;;42.43;5.03;98486.75;5003237;28;20453;-73
2022/05/26 08:29:54;;;;;;;8.48;2.25;;;;;;;41.64;5.67;98468.06;5004297;28;20447;-73
2022/05/26 08:32:21;;;;;;;6.63;2.20;;;;;;;41.14;5.67;98482.88;5003503;28;20042;-72
2022/05/26 08:34:47;;;;;;;4.57;2.00;;;;;;;38.78;7.09;98469.09;4987670;28;20397;-71
2022/05/26 08:37:20;;;;;;;5.72;2.05;;;;;;;37.78;7.41;98464.78;4988541;28;20042;-71
2022/05/26 08:39:46;;;;;;;9.43;2.00;;;;;;;37.92;7.61;98449.22;4987467;28;20069;-71
2022/05/26 08:42:34;;;;;;;10.55;1.92;;;;;;;40.82;6.25;98448.38;5003587;28;20484;-71
2022/05/26 08:45:06;;;;;;;7.82;2.20;;;;;;;43.37;5.03;98452.47;4971226;28;20412;-71
2022/05/26 08:47:41;;;;;;;8.05;1.90;;;;;;;45.39;3.98;98460.13;4987400;28;20101;-72
2022/05/26 08:50:27;;;;;;;4.55;1.40;;;;;;;46.24;3.16;98448.69;4971019;28;20108;-73
2022/05/26 08:52:57;;;;;;;4.50;1.80;;;;;;;45.46;3.62;98451.63;4988315;28;20478;-72
2022/05/26 08:55:43;;;;;;;4.13;2.08;;;;;;;40.56;5.43;98447.72;4988843;28;20046;-72
2022/05/26 08:58:08;;;;;;;8.23;1.90;;;;;;;40.70;5.71;98417.25;5005286;28;20125;-71
2022/05/26 09:00:37;;;;;;;9.18;1.80;;;;;;;41.40;5.12;98454.78;4975161;28;20053;-71
2022/05/26 09:03:22;;;;;;;4.55;1.55;;;;;;;41.54;4.88;98449.31;4991237;28;20053;-71
2022/05/26 09:05:51;;;;;;;4.00;2.10;;;;;;;41.30;5.41;98441.56;4974886;28;20443;-71
2022/05/26 09:13:54;;;;;;;4.93;1.73;;;;;;;41.24;5.76;98425.63;4987529;28;20050;-71
2022/05/26 09:16:21;;;;;;;5.45;1.60;;;;;;;41.40;5.77;98418.53;5023530;28;20093;-71
2022/05/26 09:19:12;;;;;;;5.53;1.70;;;;;;;39.60;6.10;98406.06;5023428;28;20054;-71
2022/05/26 09:21:39;;;;;;;5.72;1.85;;;;;;;39.25;6.52;98416.69;4991059;28;20133;-71
2022/05/26 09:24:22;;;;;;;4.82;1.60;;;;;;;38.16;6.58;98400.97;4973849;28;20061;-71
2022/05/26 09:27:23;;;;;;;4.60;1.88;;;;;;;36.59;7.72;98410.09;5006896;28;20038;-70
2022/05/26 09:29:49;;;;;;;5.32;2.00;;;;;;;37.38;7.39;98400.53;4990256;28;20054;-70
2022/05/26 09:32:17;;;;;;;10.30;2.13;;;;;;;39.61;6.34;98410.47;4958492;28;20096;-70
2022/05/26 09:34:43;;;;;;;8.45;1.90;;;;;;;42.23;5.40;98404.53;5006728;28;20054;-70
2022/05/26 09:37:08;;;;;;;5.15;1.63;;;;;;;43.77;4.11;98396.00;5023474;28;20141;-70
2022/05/26 09:39:38;;;;;;;3.13;1.67;;;;;;;45.48;3.28;98381.88;4958103;28;20500;-71
2022/05/26 09:42:20;;;;;;;3.42;1.38;;;;;;;46.23;3.04;98390.13;4991834;28;20539;-70
2022/05/26 09:45:07;;;;;;;7.18;2.03;;;;;;;47.25;2.52;98397.66;4974000;28;20430;-72
2022/05/26 09:47:54;;;;;;;3.15;1.70;;;;;;;47.98;2.48;98384.06;5006628;28;20054;-71
2022/05/26 09:51:02;;;;;;;3.17;1.52;;;;;;;48.39;2.29;98377.91;5006400;28;20042;-71
2022/05/26 09:53:43;;;;;;;5.03;1.50;;;;;;;48.37;1.94;98371.91;4978838;28;20058;-70
2022/05/26 09:56:27;;;;;;;5.38;1.40;;;;;;;48.09;2.26;98373.38;4990181;28;20066;-70
2022/05/26 09:58:53;;;;;;;2.72;1.40;;;;;;;48.25;1.92;98364.13;4989743;28;20054;-71
2022/05/26 10:01:28;;;;;;;6.05;1.75;;;;;;;49.16;1.89;98361.84;4990184;28;20109;-71
2022/05/26 10:04:16;;;;;;;10.00;1.67;;;;;;;49.72;1.60;98368.69;4973817;28;20046;-71
2022/05/26 10:06:54;;;;;;;4.53;1.30;;;;;;;48.19;1.92;98354.63;4989791;28;20046;-71
2022/05/26 10:09:30;;;;;;;6.63;1.60;;;;;;;47.19;2.29;98340.28;4989716;28;20052;-70
2022/05/26 10:12:40;;;;;;;10.43;1.60;;;;;;;44.92;3.16;98348.03;4955742;28;20046;-71
2022/05/26 10:15:15;;;;;;;4.53;1.70;;;;;;;41.20;4.82;98339.22;4988857;28;20043;-70
2022/05/26 10:17:57;;;;;;;5.03;1.95;;;;;;;38.11;6.33;98341.06;4989794;28;20046;-70
2022/05/26 10:20:28;;;;;;;3.05;1.60;;;;;;;35.55;8.10;98321.22;4991162;28;20046;-70
2022/05/26 10:23:18;;;;;;;3.25;1.60;;;;;;;34.40;8.98;98313.72;4973880;28;20073;-70
2022/05/26 10:26:26;;;;;;;4.90;1.75;;;;;;;33.37;9.86;98325.03;4990805;28;20057;-69
2022/05/26 10:29:03;;;;;;;7.13;3.33;;;;;;;32.41;11.02;98307.94;4989189;28;20054;-69
2022/05/26 10:31:59;;;;;;;4.78;2.22;;;;;;;32.63;11.16;98318.63;4974470;28;20108;-69
2022/05/26 10:34:35;;;;;;;4.10;1.80;;;;;;;32.42;11.05;98315.84;4989448;28;20068;-70
2022/05/26 10:37:17;;;;;;;7.53;1.85;;;;;;;32.50;10.89;98315.00;4972529;28;20053;-70
2022/05/26 10:39:52;;;;;;;4.35;1.80;;;;;;;31.94;11.21;98320.88;4990199;28;20053;-70
2022/05/26 10:42:28;;;;;;;5.35;1.70;;;;;;;31.27;11.18;98311.59;4972683;28;20054;-69
2022/05/26 10:45:15;;;;;;;9.57;1.80;;;;;;;30.46;11.62;98304.25;5021241;28;20054;-69
2022/05/26 10:48:28;;;;;;;8.50;1.80;;;;;;;30.17;12.34;98295.78;4988773;28;20050;-69
2022/05/26 10:51:00;;;;;;;4.35;2.00;;;;;;;30.23;12.24;98269.88;4976281;28;20133;-69
2022/05/26 10:53:36;;;;;;;3.08;1.95;;;;;;;30.35;13.02;98283.75;4956929;28;20038;-69
2022/05/26 10:56:07;;;;;;;7.78;2.05;;;;;;;30.28;12.59;98289.69;5020773;28;20194;-70
2022/05/26 10:58:37;;;;;;;5.63;2.22;;;;;;;30.19;12.98;98288.03;5021172;28;20508;-69
2022/05/26 11:01:10;;;;;;;7.15;1.70;;;;;;;30.13;12.74;98270.13;4988260;28;20238;-70
2022/05/26 11:03:40;;;;;;;4.40;1.85;;;;;;;30.08;12.55;98276.56;5021716;28;20054;-69
2022/05/26 11:06:25;;;;;;;3.97;1.52;;;;;;;30.17;13.18;98268.38;4988882;28;20125;-69
2022/05/26 11:08:59;;;;;;;3.53;2.10;;;;;;;30.42;13.13;98268.47;5021080;28;20046;-69
2022/05/26 11:11:40;;;;;;;1.83;1.55;;;;;;;30.87;12.73;98269.84;5004947;28;20053;-69
2022/05/26 11:17:21;;;;;;;3.85;1.80;;;;;;;30.83;12.54;98263.38;4989475;28;20085;-69
2022/05/26 11:17:24;;;;;;;7.15;1.92;;;;;;;30.92;12.35;98252.41;4987733;28;20046;-69
2022/05/26 11:20:07;;;;;;;5.97;2.00;;;;;;;30.90;12.39;98268.38;5001392;28;20053;-68
2022/05/26 11:22:35;;;;;;;6.75;2.08;;;;;;;30.71;12.57;98254.97;5004337;28;20046;-69
2022/05/26 11:25:01;;;;;;;5.55;1.83;;;;;;;30.35;12.38;98256.38;4971564;28;20057;-69
2022/05/26 11:27:37;;;;;;;4.82;1.95;;;;;;;30.16;12.76;98244.84;4988232;28;20046;-69
2022/05/26 11:36:07;;;;;;;7.45;2.30;;;;;;;30.03;12.64;98243.03;4986918;28;20050;-69
2022/05/26 11:38:34;;;;;;;8.23;1.95;;;;;;;31.13;12.13;98242.38;5016244;28;20039;-68
2022/05/26 11:41:08;;;;;;;8.32;1.95;;;;;;;31.06;12.17;98231.91;4972365;28;20038;-70
2022/05/26 11:43:58;;;;;;;3.65;2.10;;;;;;;31.27;12.36;98229.28;5021274;28;20204;-68
2022/05/26 11:46:43;;;;;;;7.18;1.90;;;;;;;30.85;12.39;98232.88;5005060;28;20050;-68
2022/05/26 11:49:11;;;;;;;7.70;4.63;;;;;;;30.91;12.60;98220.63;5003953;28;20046;-68
2022/05/26 11:51:39;;;;;;;4.45;1.90;;;;;;;30.98;12.50;98204.50;4988336;28;20477;-68
2022/05/26 11:54:07;;;;;;;7.97;2.40;;;;;;;31.23;12.20;98220.09;5002130;28;20038;-69
2022/05/26 11:56:33;;;;;;;16.10;2.20;;;;;;;31.30;12.36;98209.47;4994608;28;20074;-68
2022/05/26 11:59:32;;;;;;;6.53;2.35;;;;;;;31.47;12.19;98187.47;5003556;28;20104;-68
2022/05/26 12:02:00;;;;;;;8.85;2.00;;;;;;;31.58;12.17;98191.47;5004340;28;20365;-68
2022/05/26 12:04:32;;;;;;;12.27;2.50;;;;;;;31.68;12.40;98191.09;4972591;28;20082;-68
2022/05/26 12:07:21;;;;;;;10.30;2.03;;;;;;;31.75;12.14;98190.56;4972156;28;20060;-68
2022/05/26 12:09:57;;;;;;;6.43;1.90;;;;;;;30.77;12.64;98181.59;4972281;28;20053;-68
2022/05/26 12:12:25;;;;;;;6.85;2.33;;;;;;;30.29;13.29;98186.41;5004149;28;20580;-69
2022/05/26 12:14:52;;;;;;;3.47;1.75;;;;;;;30.04;13.11;98155.09;4989387;28;20178;-68
2022/05/26 12:17:30;;;;;;;6.57;2.30;;;;;;;30.42;13.33;98175.31;4987948;28;20038;-68
2022/05/26 12:20:11;;;;;;;7.22;2.25;;;;;;;30.52;13.33;98147.56;5004642;28;20039;-69
2022/05/26 12:22:47;;;;;;;9.25;2.30;;;;;;;30.70;13.21;98173.84;4989647;28;20050;-69
2022/05/26 12:25:28;;;;;;;10.27;2.30;;;;;;;30.48;13.37;98154.03;4993295;28;20061;-69
2022/05/26 12:28:03;;;;;;;18.40;3.08;;;;;;;29.65;13.98;98152.41;4972393;28;20153;-68
2022/05/26 12:30:29;;;;;;;15.40;1.90;;;;;;;29.09;14.81;98153.09;4956290;28;20046;-68
2022/05/26 12:32:54;;;;;;;4.53;1.60;;;;;;;28.34;14.93;98165.06;4973968;28;20466;-68
2022/05/26 12:35:50;;;;;;;12.63;1.75;;;;;;;27.88;15.53;98136.03;4992854;28;20046;-68
2022/05/26 12:38:18;;;;;;;2.45;1.58;;;;;;;27.61;15.72;98152.41;4992561;28;20518;-67